Molengracht — PCJG — position and weather

sailwx.info

Track history (hours):
 
Tides and Currents Weather Stations Pressure Air Temp Water Temp Dewpoint Dewpoint Depression Visibility Wind Speed Wind Dir Waves Ship Positions

Molengracht

Last reported at 2016-Jun-20 12:30 UTC. Time now 2016-Jun-25 08:41 UTC.
Position S 22°12' E 165°53'.

Length 143 m; draft 6.1 m.

Type: Cargo ship. MMSI: 246770000.

Date/timePositionNaut miles runAvg speedWind from/ knotsBaromVisibWave heightAir tempDewpointWater temp
2016-Jun-20 12:30S 22°12' E 165°53'1515.6
2016-Jun-20 11:32S 22°20' E 166°08'1212.5
2016-Jun-20 10:33S 22°17' E 166°20'5 5.1
2016-Jun-20 09:31S 22°16' E 166°26'0 0.0
2016-Jun-20 08:31S 22°16' E 166°26'0 0.0
2016-Jun-20 07:31S 22°16' E 166°26'0 0.0
2016-Jun-20 06:31S 22°16' E 166°26'0 0.0
2016-Jun-20 05:31S 22°16' E 166°26'0 0.0
2016-Jun-20 04:25S 22°16' E 166°26'0 0.0
2016-Jun-20 03:31S 22°16' E 166°26'0 0.0
2016-Jun-20 02:31S 22°16' E 166°26'0 0.0
2016-Jun-20 01:31S 22°16' E 166°26'0 0.0
2016-Jun-20 00:31S 22°16' E 166°26'0 0.0
2016-Jun-19 23:31S 22°16' E 166°26'0 0.0
2016-Jun-19 22:31S 22°16' E 166°26'0 0.0
2016-Jun-19 21:31S 22°16' E 166°26'0 0.0
2016-Jun-19 20:34S 22°16' E 166°26'0 0.0
2016-Jun-19 19:31S 22°16' E 166°26'0 0.0
2016-Jun-19 18:31S 22°16' E 166°26'0 0.0
2016-Jun-19 17:30S 22°16' E 166°26'0 0.0
2016-Jun-19 16:34S 22°16' E 166°26'0 0.0
2016-Jun-19 15:33S 22°16' E 166°26'0 0.0
2016-Jun-19 14:30S 22°16' E 166°26'0 0.0
2016-Jun-19 13:33S 22°16' E 166°26'0 0.0
2016-Jun-19 12:34S 22°16' E 166°26'0 0.0
2016-Jun-19 11:31S 22°16' E 166°26'0 0.0
2016-Jun-19 10:34S 22°16' E 166°26'0 0.0
2016-Jun-19 09:28S 22°16' E 166°26'0 0.0
2016-Jun-19 08:31S 22°16' E 166°26'0 0.0
2016-Jun-19 07:31S 22°16' E 166°26'0 0.0
2016-Jun-19 06:33S 22°16' E 166°26'0 0.0
2016-Jun-19 05:34S 22°16' E 166°26'0 0.0
2016-Jun-19 04:33S 22°16' E 166°26'0 0.0
2016-Jun-19 03:34S 22°16' E 166°26'0 0.0
2016-Jun-19 02:33S 22°16' E 166°26'0 0.0
2016-Jun-19 01:33S 22°16' E 166°26'0 0.0
2016-Jun-19 00:30S 22°16' E 166°26'0 0.0
2016-Jun-18 23:33S 22°16' E 166°26'0 0.0
2016-Jun-18 22:33S 22°16' E 166°26'0 0.0
2016-Jun-18 21:33S 22°16' E 166°26'5 5.0
2016-Jun-18 20:34S 22°16' E 166°21'1413.1
2016-Jun-18 19:29S 22°26' E 166°10'  
2016-Jun-15 19:08S 32°31' E 152°43'813.5
2016-Jun-15 18:33S 32°36' E 152°36'1313.3
2016-Jun-15 17:33S 32°45' E 152°24'1313.4
2016-Jun-15 16:33S 32°53' E 152°12'1313.0
2016-Jun-15 15:34S 32°59' E 151°58'10 9.4
2016-Jun-15 14:32S 32°55' E 151°48'1 1.1
2016-Jun-15 13:26S 32°55' E 151°46'0 0.0
2016-Jun-15 12:32S 32°55' E 151°46'0 0.0
2016-Jun-15 11:08S 32°55' E 151°46'0 0.0
2016-Jun-15 10:26S 32°55' E 151°46'0 0.0
2016-Jun-15 09:32S 32°55' E 151°46'0 0.0
2016-Jun-15 07:32S 32°55' E 151°46'0 0.0
2016-Jun-15 06:32S 32°55' E 151°46'0 0.0
2016-Jun-15 05:32S 32°55' E 151°46'0 0.0
2016-Jun-15 04:32S 32°55' E 151°46'0 0.0
2016-Jun-15 03:32S 32°55' E 151°46'0 0.0
2016-Jun-15 02:32S 32°55' E 151°46'0 0.0
2016-Jun-15 01:17S 32°55' E 151°46'0 0.0
2016-Jun-15 00:32S 32°55' E 151°46'0 0.0
2016-Jun-14 23:32S 32°55' E 151°46'0 0.0
2016-Jun-14 22:32S 32°55' E 151°46'0 0.0
2016-Jun-14 21:32S 32°55' E 151°46'0 0.0
2016-Jun-14 20:29S 32°55' E 151°46'0 0.0
2016-Jun-14 19:32S 32°55' E 151°46'0 0.0
2016-Jun-14 18:32S 32°55' E 151°46'0 0.0
2016-Jun-14 17:32S 32°55' E 151°46'0 0.0
2016-Jun-14 16:32S 32°55' E 151°46'0 0.0
2016-Jun-14 15:32S 32°55' E 151°46'0 0.0
2016-Jun-14 14:32S 32°55' E 151°46'0 0.0
2016-Jun-14 13:32S 32°55' E 151°46'0 0.0
2016-Jun-14 12:32S 32°55' E 151°46'0 0.0
2016-Jun-14 11:32S 32°55' E 151°46'0 0.0
2016-Jun-14 10:32S 32°55' E 151°46'4 4.4
2016-Jun-14 09:33S 32°57' E 151°51'4 0.5
2016-Jun-14 00:32S 33°00' E 151°53'1515.7
2016-Jun-13 23:33S 32°54' E 152°09'1615.5
2016-Jun-13 22:34S 32°45' E 152°24'1414.3
2016-Jun-13 21:33S 32°35' E 152°37'1513.0
2016-Jun-13 20:23S 32°24' E 152°49'32911.0
2016-Jun-12 14:23S 26°59' E 153°43'  
Track history (hours):
 
Tides and Currents Weather Stations Pressure Air Temp Water Temp Dewpoint Dewpoint Depression Visibility Wind Speed Wind Dir Waves Ship Positions

Molengracht

Last reported at 2016-Jun-20 12:30 UTC. Time now 2016-Jun-25 08:41 UTC.
Position S 22°12' E 165°53'.

Length 143 m; draft 6.1 m.

Type: Cargo ship. MMSI: 246770000.

Date/timePositionNaut miles runAvg speedWind from/ knotsBaromVisibWave heightAir tempDewpointWater temp
2016-Jun-20 12:30S 22°12' E 165°53'1515.6
2016-Jun-20 11:32S 22°20' E 166°08'1212.5
2016-Jun-20 10:33S 22°17' E 166°20'5 5.1
2016-Jun-20 09:31S 22°16' E 166°26'0 0.0
2016-Jun-20 08:31S 22°16' E 166°26'0 0.0
2016-Jun-20 07:31S 22°16' E 166°26'0 0.0
2016-Jun-20 06:31S 22°16' E 166°26'0 0.0
2016-Jun-20 05:31S 22°16' E 166°26'0 0.0
2016-Jun-20 04:25S 22°16' E 166°26'0 0.0
2016-Jun-20 03:31S 22°16' E 166°26'0 0.0
2016-Jun-20 02:31S 22°16' E 166°26'0 0.0
2016-Jun-20 01:31S 22°16' E 166°26'0 0.0
2016-Jun-20 00:31S 22°16' E 166°26'0 0.0
2016-Jun-19 23:31S 22°16' E 166°26'0 0.0
2016-Jun-19 22:31S 22°16' E 166°26'0 0.0
2016-Jun-19 21:31S 22°16' E 166°26'0 0.0
2016-Jun-19 20:34S 22°16' E 166°26'0 0.0
2016-Jun-19 19:31S 22°16' E 166°26'0 0.0
2016-Jun-19 18:31S 22°16' E 166°26'0 0.0
2016-Jun-19 17:30S 22°16' E 166°26'0 0.0
2016-Jun-19 16:34S 22°16' E 166°26'0 0.0
2016-Jun-19 15:33S 22°16' E 166°26'0 0.0
2016-Jun-19 14:30S 22°16' E 166°26'0 0.0
2016-Jun-19 13:33S 22°16' E 166°26'0 0.0
2016-Jun-19 12:34S 22°16' E 166°26'0 0.0
2016-Jun-19 11:31S 22°16' E 166°26'0 0.0
2016-Jun-19 10:34S 22°16' E 166°26'0 0.0
2016-Jun-19 09:28S 22°16' E 166°26'0 0.0
2016-Jun-19 08:31S 22°16' E 166°26'0 0.0
2016-Jun-19 07:31S 22°16' E 166°26'0 0.0
2016-Jun-19 06:33S 22°16' E 166°26'0 0.0
2016-Jun-19 05:34S 22°16' E 166°26'0 0.0
2016-Jun-19 04:33S 22°16' E 166°26'0 0.0
2016-Jun-19 03:34S 22°16' E 166°26'0 0.0
2016-Jun-19 02:33S 22°16' E 166°26'0 0.0
2016-Jun-19 01:33S 22°16' E 166°26'0 0.0
2016-Jun-19 00:30S 22°16' E 166°26'0 0.0
2016-Jun-18 23:33S 22°16' E 166°26'0 0.0
2016-Jun-18 22:33S 22°16' E 166°26'0 0.0
2016-Jun-18 21:33S 22°16' E 166°26'5 5.0
2016-Jun-18 20:34S 22°16' E 166°21'1413.1
2016-Jun-18 19:29S 22°26' E 166°10'  
2016-Jun-15 19:08S 32°31' E 152°43'813.5
2016-Jun-15 18:33S 32°36' E 152°36'1313.3
2016-Jun-15 17:33S 32°45' E 152°24'1313.4
2016-Jun-15 16:33S 32°53' E 152°12'1313.0
2016-Jun-15 15:34S 32°59' E 151°58'10 9.4
2016-Jun-15 14:32S 32°55' E 151°48'1 1.1
2016-Jun-15 13:26S 32°55' E 151°46'0 0.0
2016-Jun-15 12:32S 32°55' E 151°46'0 0.0
2016-Jun-15 11:08S 32°55' E 151°46'0 0.0
2016-Jun-15 10:26S 32°55' E 151°46'0 0.0
2016-Jun-15 09:32S 32°55' E 151°46'0 0.0
2016-Jun-15 07:32S 32°55' E 151°46'0 0.0
2016-Jun-15 06:32S 32°55' E 151°46'0 0.0
2016-Jun-15 05:32S 32°55' E 151°46'0 0.0
2016-Jun-15 04:32S 32°55' E 151°46'0 0.0
2016-Jun-15 03:32S 32°55' E 151°46'0 0.0
2016-Jun-15 02:32S 32°55' E 151°46'0 0.0
2016-Jun-15 01:17S 32°55' E 151°46'0 0.0
2016-Jun-15 00:32S 32°55' E 151°46'0 0.0
2016-Jun-14 23:32S 32°55' E 151°46'0 0.0
2016-Jun-14 22:32S 32°55' E 151°46'0 0.0
2016-Jun-14 21:32S 32°55' E 151°46'0 0.0
2016-Jun-14 20:29S 32°55' E 151°46'0 0.0
2016-Jun-14 19:32S 32°55' E 151°46'0 0.0
2016-Jun-14 18:32S 32°55' E 151°46'0 0.0
2016-Jun-14 17:32S 32°55' E 151°46'0 0.0
2016-Jun-14 16:32S 32°55' E 151°46'0 0.0
2016-Jun-14 15:32S 32°55' E 151°46'0 0.0
2016-Jun-14 14:32S 32°55' E 151°46'0 0.0
2016-Jun-14 13:32S 32°55' E 151°46'0 0.0
2016-Jun-14 12:32S 32°55' E 151°46'0 0.0
2016-Jun-14 11:32S 32°55' E 151°46'0 0.0
2016-Jun-14 10:32S 32°55' E 151°46'4 4.4
2016-Jun-14 09:33S 32°57' E 151°51'4 0.5
2016-Jun-14 00:32S 33°00' E 151°53'1515.7
2016-Jun-13 23:33S 32°54' E 152°09'1615.5
2016-Jun-13 22:34S 32°45' E 152°24'1414.3
2016-Jun-13 21:33S 32°35' E 152°37'1513.0
2016-Jun-13 20:23S 32°24' E 152°49'32911.0
2016-Jun-12 14:23S 26°59' E 153°43'  

Dump ship's entire track history